CheckWX is a tool to help pilots better visualize weather data.  It is not intended as a substitute for an official pre-flight weather briefing.

08:01:08 UTC

KCOE TAF
Coeur D'alene - Pappy Boyington Field Airport
Coeur D'alene, Idaho, USA
KCOE 190530Z 1906/2006 05010KT P6SM SKC

Mar-19@
06:00 UTC

Mar-19 @ 06:00 UTC

Mar-20@
06:00 UTC

Mar-20 @ 06:00 UTC

KCOE 190530Z 1906/2006 05010KT P6SM SKC
Wind
  • 050° at 10 KTS
Cloud Levels
  • Clear skies